Time;durP1;ratioP1;P1;durP2;ratioP2;P2;SDS_P1;SDS_P2;PMS_P1;PMS_P2;Temp;Humidity;BMP_temperature;BMP_pressure;BME280_temperature;BME280_humidity;BME280_pressure;Samples;Min_cycle;Max_cycle;Signal;HPM_P1;HPM_P2
2022/10/01 00:01:46;;;;;;;19.80;11.75;;;;;;;;;;5012721;28;20060;-48
2022/10/01 00:04:12;;;;;;;19.67;11.68;;;;;;;;;;5013452;28;20054;-48
2022/10/01 00:06:39;;;;;;;20.73;10.85;;;;;;;;;;5013292;28;20053;-48
2022/10/01 00:09:05;;;;;;;19.88;10.77;;;;;;;;;;5012814;28;20085;-49
2022/10/01 00:11:32;;;;;;;19.80;10.50;;;;;;;;;;5013600;28;20053;-48
2022/10/01 00:14:00;;;;;;;16.08;9.40;;;;;;;;;;5013362;28;20053;-48
2022/10/01 00:16:28;;;;;;;20.48;11.73;;;;;;;;;;5012571;28;20129;-49
2022/10/01 00:18:54;;;;;;;20.02;11.25;;;;;;;;;;5013030;28;20057;-47
2022/10/01 00:21:22;;;;;;;19.65;10.80;;;;;;;;;;5012172;28;20053;-52
2022/10/01 00:23:53;;;;;;;17.73;10.93;;;;;;;;;;5012031;28;20050;-48
2022/10/01 00:26:21;;;;;;;17.85;9.93;;;;;;;;;;5004907;28;20069;-51
2022/10/01 00:28:48;;;;;;;18.92;11.05;;;;;;;;;;5008133;28;20050;-49
2022/10/01 00:31:20;;;;;;;16.55;10.13;;;;;;;;;;5006040;28;20126;-48
2022/10/01 00:33:49;;;;;;;19.35;10.95;;;;;;;;;;5006623;28;20057;-48
2022/10/01 00:36:16;;;;;;;16.63;9.32;;;;;;;;;;5009399;28;20050;-51
2022/10/01 00:38:42;;;;;;;19.95;9.75;;;;;;;;;;5012386;28;20049;-50
2022/10/01 00:41:09;;;;;;;18.80;11.10;;;;;;;;;;5012707;28;20694;-49
2022/10/01 00:43:36;;;;;;;20.15;10.38;;;;;;;;;;5012552;28;20065;-48
2022/10/01 00:46:04;;;;;;;17.63;10.35;;;;;;;;;;5013034;28;20145;-50
2022/10/01 00:48:36;;;;;;;18.17;10.50;;;;;;;;;;5012459;28;20050;-50
2022/10/01 00:51:05;;;;;;;18.45;10.23;;;;;;;;;;5012027;28;20414;-48
2022/10/01 00:53:32;;;;;;;20.15;11.35;;;;;;;;;;5006003;28;20053;-48
2022/10/01 00:55:59;;;;;;;22.08;12.32;;;;;;;;;;5012304;28;20058;-48
2022/10/01 00:58:26;;;;;;;20.92;11.32;;;;;;;;;;5010416;28;20054;-49
2022/10/01 01:00:55;;;;;;;22.05;12.25;;;;;;;;;;5012710;28;20050;-50
2022/10/01 01:03:22;;;;;;;20.98;11.38;;;;;;;;;;5010910;28;20061;-48
2022/10/01 01:05:49;;;;;;;19.52;11.38;;;;;;;;;;5012082;28;20058;-49
2022/10/01 01:08:16;;;;;;;22.48;12.48;;;;;;;;;;5012479;28;20049;-51
2022/10/01 01:10:48;;;;;;;22.60;12.20;;;;;;;;;;5012310;28;20065;-51
2022/10/01 01:13:17;;;;;;;21.35;12.05;;;;;;;;;;5012779;28;20046;-49
2022/10/01 01:15:50;;;;;;;20.77;11.57;;;;;;;;;;5012436;28;20378;-51
2022/10/01 01:18:20;;;;;;;18.13;10.25;;;;;;;;;;5012055;28;20057;-50
2022/10/01 01:20:56;;;;;;;19.58;11.48;;;;;;;;;;5013099;28;20042;-48
2022/10/01 01:23:42;;;;;;;19.75;11.05;;;;;;;;;;5012039;28;20058;-50
2022/10/01 01:26:13;;;;;;;18.85;11.02;;;;;;;;;;5012480;28;20439;-51
2022/10/01 01:28:43;;;;;;;20.48;11.02;;;;;;;;;;5012400;28;20042;-51
2022/10/01 01:31:11;;;;;;;20.20;11.90;;;;;;;;;;5012687;28;20081;-48
2022/10/01 01:33:38;;;;;;;21.10;11.85;;;;;;;;;;5011419;28;20414;-50
2022/10/01 01:36:06;;;;;;;19.35;11.85;;;;;;;;;;5014901;28;20103;-49
2022/10/01 01:38:36;;;;;;;20.58;11.38;;;;;;;;;;5016262;28;20104;-48
2022/10/01 01:41:05;;;;;;;20.98;11.10;;;;;;;;;;5016279;28;20049;-50
2022/10/01 01:43:33;;;;;;;23.38;12.07;;;;;;;;;;5002872;28;20054;-48
2022/10/01 01:46:02;;;;;;;20.90;11.15;;;;;;;;;;5015730;28;20057;-51
2022/10/01 01:48:29;;;;;;;25.63;11.30;;;;;;;;;;5015670;28;20058;-50
2022/10/01 01:50:57;;;;;;;23.95;12.68;;;;;;;;;;5016088;28;20053;-51
2022/10/01 01:53:25;;;;;;;18.15;10.27;;;;;;;;;;5017419;28;20054;-51
2022/10/01 01:55:52;;;;;;;20.92;10.57;;;;;;;;;;5015841;28;20053;-51
2022/10/01 01:58:20;;;;;;;25.77;13.07;;;;;;;;;;5015600;28;20050;-48
2022/10/01 02:00:51;;;;;;;22.02;12.63;;;;;;;;;;5015480;28;20131;-51
2022/10/01 02:03:20;;;;;;;23.27;11.55;;;;;;;;;;5003212;28;20529;-49
2022/10/01 02:05:55;;;;;;;21.40;11.43;;;;;;;;;;5015420;28;20136;-48
2022/10/01 02:08:26;;;;;;;21.58;11.68;;;;;;;;;;5009703;28;20050;-48
2022/10/01 02:11:08;;;;;;;21.10;11.30;;;;;;;;;;5009636;28;20053;-47
2022/10/01 02:13:42;;;;;;;21.92;12.27;;;;;;;;;;5004106;28;20057;-48
2022/10/01 02:16:13;;;;;;;21.98;11.18;;;;;;;;;;5008850;28;20046;-47
2022/10/01 02:18:44;;;;;;;25.13;13.15;;;;;;;;;;5003397;28;20129;-46
2022/10/01 02:21:14;;;;;;;21.42;11.60;;;;;;;;;;5015269;28;20434;-48
2022/10/01 02:23:42;;;;;;;21.75;12.25;;;;;;;;;;5009404;28;20050;-50
2022/10/01 02:26:11;;;;;;;24.83;11.90;;;;;;;;;;5009282;28;20053;-49
2022/10/01 02:28:39;;;;;;;21.10;11.07;;;;;;;;;;5002793;28;20478;-51
2022/10/01 02:31:06;;;;;;;21.35;11.45;;;;;;;;;;5011706;28;20133;-51
2022/10/01 02:33:35;;;;;;;22.73;12.35;;;;;;;;;;5014668;28;20065;-48
2022/10/01 02:36:03;;;;;;;23.85;13.82;;;;;;;;;;5014629;28;20542;-50
2022/10/01 02:38:30;;;;;;;23.00;12.48;;;;;;;;;;5014160;28;20046;-48
2022/10/01 02:41:00;;;;;;;22.15;12.52;;;;;;;;;;5014591;28;20061;-50
2022/10/01 02:43:31;;;;;;;22.98;12.80;;;;;;;;;;5006630;28;20150;-50
2022/10/01 02:46:01;;;;;;;23.02;12.65;;;;;;;;;;5009189;28;20137;-50
2022/10/01 02:48:27;;;;;;;22.77;13.20;;;;;;;;;;5013502;28;20059;-49
2022/10/01 02:50:57;;;;;;;23.75;13.60;;;;;;;;;;5008424;28;20133;-50
2022/10/01 02:53:29;;;;;;;22.05;12.07;;;;;;;;;;5007902;28;20061;-48
2022/10/01 02:55:56;;;;;;;25.02;13.55;;;;;;;;;;5000820;28;20053;-49
2022/10/01 02:58:21;;;;;;;24.25;13.35;;;;;;;;;;5014645;28;20050;-48
2022/10/01 03:00:48;;;;;;;24.90;13.40;;;;;;;;;;5014114;28;20064;-48
2022/10/01 03:03:14;;;;;;;22.58;12.48;;;;;;;;;;5002235;28;20045;-49
2022/10/01 03:05:40;;;;;;;21.95;12.38;;;;;;;;;;5013482;28;20058;-47
2022/10/01 03:08:07;;;;;;;25.88;12.43;;;;;;;;;;5014319;28;20045;-47
2022/10/01 03:10:34;;;;;;;23.23;12.40;;;;;;;;;;5014286;28;20061;-48
2022/10/01 03:13:01;;;;;;;19.95;10.88;;;;;;;;;;5014202;28;20069;-47
2022/10/01 03:15:28;;;;;;;20.17;11.02;;;;;;;;;;5013205;28;20501;-49
2022/10/01 03:17:55;;;;;;;24.40;12.18;;;;;;;;;;5014004;28;20061;-48
2022/10/01 03:20:21;;;;;;;22.33;11.70;;;;;;;;;;5013640;28;20394;-49
2022/10/01 03:22:48;;;;;;;21.58;11.77;;;;;;;;;;5013576;28;20050;-50
2022/10/01 03:25:14;;;;;;;20.52;10.43;;;;;;;;;;5013604;28;20050;-50
2022/10/01 03:27:42;;;;;;;18.10;10.30;;;;;;;;;;5013376;28;20057;-50
2022/10/01 03:30:09;;;;;;;22.05;11.95;;;;;;;;;;5013121;28;20475;-48
2022/10/01 03:32:35;;;;;;;24.10;11.50;;;;;;;;;;5013876;28;20050;-49
2022/10/01 03:35:01;;;;;;;19.27;10.63;;;;;;;;;;5013448;28;20083;-48
2022/10/01 03:37:28;;;;;;;24.00;12.23;;;;;;;;;;5013731;28;20375;-48
2022/10/01 03:39:54;;;;;;;23.40;12.88;;;;;;;;;;5010882;28;20058;-47
2022/10/01 03:42:20;;;;;;;24.77;12.50;;;;;;;;;;5013675;28;20050;-51
2022/10/01 03:44:48;;;;;;;26.27;14.13;;;;;;;;;;5013789;28;20382;-49
2022/10/01 03:47:14;;;;;;;25.80;12.73;;;;;;;;;;5013293;28;20045;-51
2022/10/01 03:49:40;;;;;;;24.95;12.93;;;;;;;;;;5010666;28;20053;-51
2022/10/01 03:52:06;;;;;;;23.55;11.77;;;;;;;;;;5013462;28;20073;-50
2022/10/01 03:54:33;;;;;;;21.27;11.00;;;;;;;;;;5013395;28;20057;-47
2022/10/01 03:56:59;;;;;;;22.83;11.77;;;;;;;;;;5012943;28;20054;-49
2022/10/01 03:59:26;;;;;;;22.00;11.82;;;;;;;;;;5012184;28;20451;-48
2022/10/01 04:01:54;;;;;;;20.67;10.85;;;;;;;;;;5013238;28;20138;-48
2022/10/01 04:04:20;;;;;;;22.02;11.63;;;;;;;;;;5013109;28;20049;-48
2022/10/01 04:06:46;;;;;;;18.65;10.82;;;;;;;;;;5013293;28;20061;-51
2022/10/01 04:09:13;;;;;;;21.52;11.40;;;;;;;;;;5012759;28;20054;-51
2022/10/01 04:11:39;;;;;;;19.75;11.98;;;;;;;;;;5013484;28;20068;-49
2022/10/01 04:14:05;;;;;;;22.20;10.85;;;;;;;;;;5012950;28;20137;-50
2022/10/01 04:16:33;;;;;;;20.42;11.80;;;;;;;;;;5012835;28;20065;-48
2022/10/01 04:19:01;;;;;;;18.70;10.93;;;;;;;;;;5013095;28;20107;-48
2022/10/01 04:21:29;;;;;;;19.00;9.95;;;;;;;;;;5012633;28;20387;-49
2022/10/01 04:23:55;;;;;;;18.67;10.50;;;;;;;;;;5013250;28;20061;-48
2022/10/01 04:26:21;;;;;;;19.65;10.27;;;;;;;;;;5012402;28;20065;-49
2022/10/01 04:28:47;;;;;;;20.70;10.38;;;;;;;;;;5012620;28;20501;-48
2022/10/01 04:31:26;;;;;;;20.23;10.40;;;;;;;;;;5012422;28;20343;-47
2022/10/01 04:33:53;;;;;;;24.05;12.27;;;;;;;;;;4999700;28;20053;-48
2022/10/01 04:36:21;;;;;;;20.20;10.18;;;;;;;;;;5007514;28;20050;-48
2022/10/01 04:38:50;;;;;;;21.45;10.70;;;;;;;;;;5003020;28;20058;-49
2022/10/01 04:41:16;;;;;;;20.50;10.63;;;;;;;;;;5012810;28;20060;-47
2022/10/01 04:43:42;;;;;;;20.50;10.60;;;;;;;;;;5012614;28;20050;-50
2022/10/01 04:46:08;;;;;;;21.88;12.10;;;;;;;;;;5012846;28;20054;-48
2022/10/01 04:48:35;;;;;;;21.80;11.27;;;;;;;;;;5011963;28;20052;-50
2022/10/01 04:51:01;;;;;;;19.17;9.90;;;;;;;;;;5012849;28;20111;-48
2022/10/01 04:53:29;;;;;;;23.25;11.32;;;;;;;;;;5012822;28;20045;-49
2022/10/01 04:55:55;;;;;;;25.15;12.50;;;;;;;;;;5012845;28;20062;-51
2022/10/01 04:58:21;;;;;;;20.55;10.57;;;;;;;;;;5012537;28;20406;-48
2022/10/01 05:00:48;;;;;;;19.52;10.73;;;;;;;;;;5012439;28;20050;-50
2022/10/01 05:03:14;;;;;;;19.70;11.23;;;;;;;;;;5012737;28;20049;-50
2022/10/01 05:05:41;;;;;;;24.27;12.57;;;;;;;;;;5010042;28;20061;-48
2022/10/01 05:08:07;;;;;;;17.55;9.55;;;;;;;;;;5007207;28;20410;-48
2022/10/01 05:10:35;;;;;;;20.98;11.10;;;;;;;;;;5006987;28;20057;-47
2022/10/01 05:13:01;;;;;;;24.33;11.63;;;;;;;;;;5014312;28;20046;-48
2022/10/01 05:15:28;;;;;;;21.35;11.85;;;;;;;;;;5015065;28;20056;-49
2022/10/01 05:17:55;;;;;;;23.40;12.30;;;;;;;;;;5007019;28;20050;-51
2022/10/01 05:20:24;;;;;;;26.05;12.10;;;;;;;;;;5012682;28;20478;-51
2022/10/01 05:22:53;;;;;;;22.25;11.77;;;;;;;;;;5011040;28;20045;-48
2022/10/01 05:25:20;;;;;;;24.77;11.38;;;;;;;;;;5016369;28;20050;-49
2022/10/01 05:27:50;;;;;;;19.83;11.05;;;;;;;;;;5010804;28;20064;-48
2022/10/01 05:30:22;;;;;;;21.17;10.18;;;;;;;;;;5015457;28;20427;-47
2022/10/01 05:32:56;;;;;;;22.80;12.10;;;;;;;;;;5007314;28;20383;-47
2022/10/01 05:35:23;;;;;;;22.75;11.55;;;;;;;;;;5011571;28;20425;-48
2022/10/01 05:37:52;;;;;;;24.88;11.77;;;;;;;;;;5007882;28;20058;-47
2022/10/01 05:40:18;;;;;;;22.80;11.40;;;;;;;;;;5015560;28;20053;-47
2022/10/01 05:42:45;;;;;;;20.73;11.07;;;;;;;;;;5016063;28;20088;-48
2022/10/01 05:45:13;;;;;;;23.50;11.82;;;;;;;;;;4997200;28;20173;-50
2022/10/01 05:47:41;;;;;;;21.88;11.52;;;;;;;;;;5002990;28;20058;-51
2022/10/01 05:50:07;;;;;;;24.17;11.88;;;;;;;;;;4999275;28;20090;-47
2022/10/01 05:52:34;;;;;;;23.00;11.77;;;;;;;;;;4999937;28;20125;-48
2022/10/01 05:55:01;;;;;;;18.10;10.32;;;;;;;;;;5000839;28;20068;-49
2022/10/01 05:57:27;;;;;;;26.00;12.38;;;;;;;;;;4996149;28;20061;-47
2022/10/01 05:59:55;;;;;;;21.83;12.55;;;;;;;;;;4995884;28;20050;-49
2022/10/01 06:02:22;;;;;;;22.77;11.20;;;;;;;;;;5009170;28;20405;-48
2022/10/01 06:04:48;;;;;;;21.85;11.25;;;;;;;;;;5005391;28;20057;-47
2022/10/01 06:07:15;;;;;;;24.83;12.60;;;;;;;;;;5015482;28;20064;-48
2022/10/01 06:09:41;;;;;;;28.52;12.43;;;;;;;;;;5001340;28;20046;-48
2022/10/01 06:12:08;;;;;;;24.00;12.65;;;;;;;;;;5005681;28;20108;-48
2022/10/01 06:14:34;;;;;;;26.35;13.18;;;;;;;;;;4995965;28;20112;-49
2022/10/01 06:17:01;;;;;;;28.27;13.85;;;;;;;;;;5009372;28;20133;-47
2022/10/01 06:19:28;;;;;;;25.73;13.07;;;;;;;;;;5000996;28;20057;-48
2022/10/01 06:21:55;;;;;;;23.65;12.68;;;;;;;;;;5004596;28;20058;-48
2022/10/01 06:24:21;;;;;;;25.10;12.88;;;;;;;;;;5008326;28;20533;-50
2022/10/01 06:26:47;;;;;;;23.15;12.52;;;;;;;;;;5014339;28;20050;-48
2022/10/01 06:29:14;;;;;;;23.25;13.07;;;;;;;;;;5015372;28;20046;-49
2022/10/01 06:31:40;;;;;;;25.25;13.88;;;;;;;;;;5011353;28;20050;-50
2022/10/01 06:34:06;;;;;;;27.10;13.93;;;;;;;;;;5004521;28;20108;-49
2022/10/01 06:36:34;;;;;;;31.30;14.35;;;;;;;;;;5010722;28;20046;-48
2022/10/01 06:39:03;;;;;;;21.73;11.35;;;;;;;;;;5015049;28;20053;-48
2022/10/01 06:41:30;;;;;;;24.67;12.73;;;;;;;;;;5014329;28;20085;-48
2022/10/01 06:43:56;;;;;;;23.25;13.60;;;;;;;;;;4997216;28;20057;-51
2022/10/01 06:46:23;;;;;;;29.00;14.38;;;;;;;;;;4996883;28;20065;-51
2022/10/01 06:48:49;;;;;;;26.33;14.95;;;;;;;;;;5008178;28;20142;-47
2022/10/01 06:52:47;;;;;;;20.90;12.07;;;;;;;;;;5006706;28;20084;-50
2022/10/01 06:54:03;;;;;;;22.17;12.15;;;;;;;;;;5010272;28;20057;-50
2022/10/01 06:56:30;;;;;;;21.60;11.88;;;;;;;;;;5014816;28;20054;-51
2022/10/01 06:58:56;;;;;;;20.38;11.10;;;;;;;;;;5002362;28;20081;-51
2022/10/01 07:01:22;;;;;;;25.63;13.23;;;;;;;;;;5014021;28;20072;-48
2022/10/01 07:03:49;;;;;;;20.00;11.57;;;;;;;;;;5014620;28;20060;-48
2022/10/01 07:06:16;;;;;;;24.35;13.45;;;;;;;;;;5014467;28;20104;-50
2022/10/01 07:08:42;;;;;;;28.92;14.10;;;;;;;;;;5014177;28;20050;-51
2022/10/01 07:11:10;;;;;;;24.48;12.13;;;;;;;;;;5011916;28;20506;-49
2022/10/01 07:13:36;;;;;;;22.40;12.25;;;;;;;;;;4995060;28;20050;-51
2022/10/01 07:16:02;;;;;;;26.05;12.50;;;;;;;;;;5008356;28;20052;-49
2022/10/01 07:18:29;;;;;;;20.70;11.60;;;;;;;;;;4994499;28;20054;-50
2022/10/01 07:20:56;;;;;;;20.60;12.05;;;;;;;;;;4994428;28;20407;-47
2022/10/01 07:23:23;;;;;;;22.05;12.93;;;;;;;;;;5004151;28;20046;-47
2022/10/01 07:25:49;;;;;;;28.90;13.57;;;;;;;;;;4996447;28;20053;-48
2022/10/01 07:28:18;;;;;;;25.50;12.45;;;;;;;;;;5005579;28;20064;-49
2022/10/01 07:30:47;;;;;;;30.33;11.68;;;;;;;;;;4998172;28;20054;-47
2022/10/01 07:33:13;;;;;;;23.33;12.98;;;;;;;;;;5008618;28;20474;-47
2022/10/01 07:35:40;;;;;;;24.30;11.95;;;;;;;;;;5009824;28;20046;-47
2022/10/01 07:38:06;;;;;;;26.58;12.40;;;;;;;;;;5013431;28;20139;-48
2022/10/01 07:40:33;;;;;;;20.50;10.80;;;;;;;;;;5002659;28;20431;-51
2022/10/01 07:42:59;;;;;;;20.88;11.88;;;;;;;;;;5000131;28;20054;-50
2022/10/01 07:45:27;;;;;;;18.65;11.75;;;;;;;;;;4994621;28;20052;-48
2022/10/01 07:47:54;;;;;;;18.48;10.57;;;;;;;;;;5004123;28;20085;-50
2022/10/01 07:50:20;;;;;;;19.88;11.02;;;;;;;;;;4997980;28;20185;-50
2022/10/01 07:52:49;;;;;;;15.50;9.63;;;;;;;;;;4998745;28;20050;-50
2022/10/01 07:55:16;;;;;;;19.35;11.20;;;;;;;;;;4999512;28;20525;-49
2022/10/01 07:57:43;;;;;;;21.75;11.25;;;;;;;;;;4996219;28;20081;-50
2022/10/01 08:00:10;;;;;;;17.67;10.75;;;;;;;;;;5000439;28;20050;-48
2022/10/01 08:02:37;;;;;;;24.98;11.95;;;;;;;;;;5012817;28;20478;-51
2022/10/01 08:05:19;;;;;;;20.33;11.70;;;;;;;;;;5013202;28;20049;-48
2022/10/01 08:07:47;;;;;;;19.00;12.25;;;;;;;;;;5012631;28;20466;-52
2022/10/01 08:10:13;;;;;;;20.33;12.55;;;;;;;;;;5010365;28;20584;-48
2022/10/01 08:12:41;;;;;;;24.52;13.63;;;;;;;;;;5003191;28;20077;-52
2022/10/01 08:15:09;;;;;;;19.85;12.13;;;;;;;;;;5002838;28;20050;-49
2022/10/01 08:17:36;;;;;;;18.58;11.25;;;;;;;;;;5012369;28;20443;-52
2022/10/01 08:20:06;;;;;;;19.15;10.98;;;;;;;;;;5008588;28;20115;-49
2022/10/01 08:22:32;;;;;;;17.45;11.70;;;;;;;;;;5000703;28;20050;-49
2022/10/01 08:24:58;;;;;;;19.17;11.20;;;;;;;;;;5003648;28;20053;-48
2022/10/01 08:27:25;;;;;;;17.58;10.93;;;;;;;;;;4998963;28;20208;-48
2022/10/01 08:29:52;;;;;;;15.93;10.82;;;;;;;;;;5007467;28;20057;-49
2022/10/01 08:32:18;;;;;;;16.88;10.20;;;;;;;;;;5005267;28;20065;-49
2022/10/01 08:34:45;;;;;;;15.40;8.95;;;;;;;;;;5003331;28;20387;-51
2022/10/01 08:37:13;;;;;;;13.05;8.00;;;;;;;;;;5010680;28;20462;-49
2022/10/01 08:39:39;;;;;;;15.80;9.02;;;;;;;;;;5007175;28;20081;-48
2022/10/01 08:42:08;;;;;;;15.23;9.02;;;;;;;;;;5012372;28;20057;-48
2022/10/01 08:44:40;;;;;;;18.27;10.75;;;;;;;;;;5012084;28;20077;-49
2022/10/01 08:47:08;;;;;;;15.68;9.38;;;;;;;;;;4998551;28;20046;-48
2022/10/01 08:49:36;;;;;;;22.35;11.23;;;;;;;;;;5004800;28;20058;-51
2022/10/01 08:52:05;;;;;;;22.33;13.30;;;;;;;;;;4999152;28;20053;-48
2022/10/01 08:54:35;;;;;;;17.33;10.80;;;;;;;;;;5012103;28;20065;-48
2022/10/01 08:57:03;;;;;;;15.73;9.35;;;;;;;;;;4997652;28;20064;-49
2022/10/01 08:59:33;;;;;;;19.15;10.13;;;;;;;;;;5012099;28;20064;-48
2022/10/01 09:02:01;;;;;;;12.95;8.50;;;;;;;;;;5007014;28;20058;-49
2022/10/01 09:04:31;;;;;;;15.80;10.55;;;;;;;;;;5011898;28;20374;-51
2022/10/01 09:07:04;;;;;;;14.18;8.75;;;;;;;;;;5012347;28;20050;-49
2022/10/01 09:09:37;;;;;;;11.15;8.07;;;;;;;;;;5011761;28;20049;-48
2022/10/01 09:12:12;;;;;;;13.43;7.57;;;;;;;;;;5011867;28;20057;-48
2022/10/01 09:14:48;;;;;;;11.38;7.65;;;;;;;;;;5011913;28;20477;-51
2022/10/01 09:17:18;;;;;;;13.25;7.72;;;;;;;;;;5010998;28;20045;-48
2022/10/01 09:19:53;;;;;;;13.77;7.18;;;;;;;;;;5011513;28;20038;-50
2022/10/01 09:22:25;;;;;;;12.45;7.75;;;;;;;;;;5005999;28;20065;-49
2022/10/01 09:25:00;;;;;;;13.48;8.07;;;;;;;;;;5011801;28;20045;-49
2022/10/01 09:27:27;;;;;;;13.60;8.85;;;;;;;;;;5007404;28;20057;-48
2022/10/01 09:29:56;;;;;;;13.20;8.05;;;;;;;;;;5011621;28;20128;-48
2022/10/01 09:32:24;;;;;;;12.48;8.05;;;;;;;;;;5012457;28;20050;-48
2022/10/01 09:34:51;;;;;;;11.85;6.95;;;;;;;;;;5011460;28;20375;-49
2022/10/01 09:37:25;;;;;;;14.00;8.60;;;;;;;;;;5012086;28;20050;-47
2022/10/01 09:39:59;;;;;;;13.02;7.93;;;;;;;;;;5011514;28;20459;-48
2022/10/01 09:42:26;;;;;;;11.63;7.38;;;;;;;;;;5012549;28;20053;-48
2022/10/01 09:44:53;;;;;;;13.45;8.43;;;;;;;;;;5011219;28;20505;-48
2022/10/01 09:47:20;;;;;;;13.77;7.65;;;;;;;;;;5009234;28;20088;-48
2022/10/01 09:49:48;;;;;;;13.77;8.02;;;;;;;;;;5007040;28;20050;-48
2022/10/01 09:52:27;;;;;;;13.63;7.68;;;;;;;;;;5003284;28;20084;-49
2022/10/01 09:54:57;;;;;;;14.02;7.95;;;;;;;;;;5008927;28;20109;-51
2022/10/01 09:57:25;;;;;;;10.85;7.53;;;;;;;;;;5001043;28;20112;-50
2022/10/01 09:59:55;;;;;;;12.07;7.63;;;;;;;;;;5008957;28;20485;-49
2022/10/01 10:02:24;;;;;;;14.00;7.43;;;;;;;;;;5015150;28;20064;-48
2022/10/01 10:04:58;;;;;;;12.05;7.20;;;;;;;;;;5002147;28;20054;-48
2022/10/01 10:07:26;;;;;;;11.90;8.45;;;;;;;;;;5015749;28;20084;-49
2022/10/01 10:09:53;;;;;;;15.45;8.15;;;;;;;;;;5015077;28;20442;-50
2022/10/01 10:12:27;;;;;;;12.32;7.32;;;;;;;;;;5015201;28;20045;-48
2022/10/01 10:14:54;;;;;;;15.82;7.85;;;;;;;;;;5015403;28;20041;-51
2022/10/01 10:17:20;;;;;;;11.15;7.13;;;;;;;;;;5015265;28;20076;-50
2022/10/01 10:19:48;;;;;;;12.25;7.05;;;;;;;;;;5015097;28;20053;-48
2022/10/01 10:22:23;;;;;;;21.67;7.07;;;;;;;;;;5014989;28;20064;-48
2022/10/01 10:24:50;;;;;;;10.55;7.20;;;;;;;;;;5015431;28;20062;-52
2022/10/01 10:27:20;;;;;;;10.43;7.00;;;;;;;;;;5014736;28;20054;-52
2022/10/01 10:29:48;;;;;;;9.50;6.57;;;;;;;;;;5014517;28;20495;-49
2022/10/01 10:32:19;;;;;;;11.52;6.68;;;;;;;;;;5015218;28;20042;-48
2022/10/01 10:34:46;;;;;;;11.60;6.72;;;;;;;;;;5015024;28;20050;-49
2022/10/01 10:37:14;;;;;;;13.35;6.72;;;;;;;;;;5014613;28;20077;-49
2022/10/01 10:39:43;;;;;;;11.43;6.78;;;;;;;;;;5014845;28;20046;-48
2022/10/01 10:42:13;;;;;;;12.68;6.68;;;;;;;;;;5014574;28;20496;-49
2022/10/01 10:44:42;;;;;;;11.13;6.50;;;;;;;;;;5008389;28;20054;-48
2022/10/01 10:47:12;;;;;;;11.23;7.05;;;;;;;;;;5008736;28;20050;-49
2022/10/01 10:49:40;;;;;;;14.02;7.25;;;;;;;;;;4998274;28;20128;-47
2022/10/01 10:52:18;;;;;;;12.73;7.32;;;;;;;;;;5011755;28;20072;-48
2022/10/01 10:54:47;;;;;;;11.77;7.18;;;;;;;;;;5014839;28;20424;-48
2022/10/01 10:57:20;;;;;;;11.88;7.40;;;;;;;;;;5014787;28;20045;-48
2022/10/01 10:59:54;;;;;;;11.95;7.35;;;;;;;;;;5003623;28;20426;-52
2022/10/01 11:02:24;;;;;;;15.63;7.50;;;;;;;;;;5014136;28;20136;-49
2022/10/01 11:04:52;;;;;;;9.23;6.50;;;;;;;;;;5013848;28;20073;-50
2022/10/01 11:07:20;;;;;;;8.82;6.70;;;;;;;;;;5013662;28;20057;-49
2022/10/01 11:09:54;;;;;;;12.77;6.72;;;;;;;;;;5012379;28;20058;-48
2022/10/01 11:12:26;;;;;;;10.80;6.38;;;;;;;;;;5012930;28;20053;-48
2022/10/01 11:14:59;;;;;;;9.10;6.22;;;;;;;;;;5011419;28;20046;-50
2022/10/01 11:17:44;;;;;;;14.00;7.00;;;;;;;;;;5014429;28;20081;-48
2022/10/01 11:20:11;;;;;;;;;;;;;;;;;;5012262;28;20068;-49
2022/10/01 11:22:44;;;;;;;9.55;6.22;;;;;;;;;;5011659;28;19922;-48
2022/10/01 11:25:16;;;;;;;9.38;6.00;;;;;;;;;;5011188;28;20148;-48
2022/10/01 11:27:48;;;;;;;10.57;7.00;;;;;;;;;;5014414;28;20054;-49
2022/10/01 11:30:16;;;;;;;8.88;6.03;;;;;;;;;;5013712;28;20038;-49
2022/10/01 11:32:45;;;;;;;9.48;5.63;;;;;;;;;;5010970;28;20046;-48
2022/10/01 11:35:31;;;;;;;12.15;6.60;;;;;;;;;;5011105;28;20049;-48
2022/10/01 11:37:58;;;;;;;;;;;;;;;;;;5003118;28;20056;-50
2022/10/01 11:40:28;;;;;;;7.22;5.10;;;;;;;;;;5013756;28;19964;-48
2022/10/01 11:42:56;;;;;;;11.15;5.40;;;;;;;;;;5014283;28;20045;-48
2022/10/01 11:45:28;;;;;;;8.85;5.53;;;;;;;;;;5011617;28;20107;-52
2022/10/01 11:47:58;;;;;;;9.93;5.55;;;;;;;;;;5011895;28;20062;-48
2022/10/01 11:50:27;;;;;;;8.77;5.70;;;;;;;;;;5011881;28;20042;-49
2022/10/01 11:52:57;;;;;;;10.90;5.47;;;;;;;;;;5013501;28;20054;-49
2022/10/01 12:01:08;;;;;;;7.05;4.38;;;;;;;;;;5003796;28;20056;-50
2022/10/01 12:03:42;;;;;;;8.15;4.47;;;;;;;;;;5013039;28;20061;-49
2022/10/01 12:06:13;;;;;;;10.10;5.00;;;;;;;;;;5012549;28;20057;-49
2022/10/01 12:08:44;;;;;;;6.70;4.70;;;;;;;;;;5013218;28;20046;-49
2022/10/01 12:11:16;;;;;;;7.30;5.25;;;;;;;;;;5005058;28;20046;-49
2022/10/01 12:13:46;;;;;;;8.35;5.20;;;;;;;;;;5006931;28;20048;-51
2022/10/01 12:16:14;;;;;;;8.35;5.00;;;;;;;;;;5003622;28;20050;-49
2022/10/01 12:18:47;;;;;;;9.50;5.30;;;;;;;;;;5012919;28;20054;-51
2022/10/01 12:21:16;;;;;;;9.68;5.43;;;;;;;;;;5009047;28;20042;-48
2022/10/01 12:23:45;;;;;;;12.07;5.53;;;;;;;;;;5006280;28;20046;-48
2022/10/01 12:26:17;;;;;;;7.38;4.47;;;;;;;;;;5009029;28;20064;-49
2022/10/01 12:28:49;;;;;;;11.98;5.10;;;;;;;;;;5010967;28;20054;-49
2022/10/01 12:31:20;;;;;;;8.98;5.05;;;;;;;;;;5010019;28;20418;-48
2022/10/01 12:33:57;;;;;;;7.72;4.60;;;;;;;;;;4999250;28;20053;-48
2022/10/01 12:36:30;;;;;;;8.85;4.82;;;;;;;;;;5008023;28;20056;-48
2022/10/01 12:39:04;;;;;;;9.32;5.28;;;;;;;;;;5008318;28;20050;-49
2022/10/01 12:41:34;;;;;;;12.10;4.68;;;;;;;;;;5010606;28;20056;-47
2022/10/01 12:44:12;;;;;;;8.00;4.55;;;;;;;;;;5001369;28;20068;-48
2022/10/01 12:46:45;;;;;;;6.90;4.78;;;;;;;;;;5012462;28;20137;-48
2022/10/01 12:49:21;;;;;;;10.10;4.97;;;;;;;;;;5012762;28;20057;-48
2022/10/01 12:51:51;;;;;;;8.70;4.95;;;;;;;;;;5012216;28;20052;-50
2022/10/01 12:54:24;;;;;;;10.30;5.32;;;;;;;;;;5012750;28;20046;-50
2022/10/01 12:56:54;;;;;;;7.93;4.70;;;;;;;;;;5011935;28;20064;-49
2022/10/01 12:59:28;;;;;;;11.88;5.50;;;;;;;;;;4995146;28;20057;-47
2022/10/01 13:02:00;;;;;;;9.88;5.22;;;;;;;;;;5005733;28;20066;-48
2022/10/01 13:04:37;;;;;;;11.85;5.88;;;;;;;;;;5009488;28;20535;-51
2022/10/01 13:07:14;;;;;;;10.88;6.32;;;;;;;;;;4996223;28;20475;-48
2022/10/01 13:09:43;;;;;;;13.80;6.20;;;;;;;;;;5008658;28;20133;-48
2022/10/01 13:12:15;;;;;;;13.98;5.68;;;;;;;;;;4996278;28;20054;-50
2022/10/01 13:14:43;;;;;;;8.63;5.60;;;;;;;;;;4999045;28;20355;-47
2022/10/01 13:17:11;;;;;;;9.70;5.30;;;;;;;;;;5006588;28;20046;-47
2022/10/01 13:19:43;;;;;;;11.30;5.78;;;;;;;;;;4999926;28;20066;-49
2022/10/01 13:22:15;;;;;;;11.80;5.50;;;;;;;;;;5009819;28;20050;-50
2022/10/01 13:24:45;;;;;;;13.20;5.93;;;;;;;;;;5000528;28;20059;-49
2022/10/01 13:27:16;;;;;;;7.97;5.00;;;;;;;;;;4995103;28;20116;-50
2022/10/01 13:29:48;;;;;;;8.65;5.63;;;;;;;;;;5007679;28;20085;-47
2022/10/01 13:32:26;;;;;;;9.10;5.80;;;;;;;;;;5015459;28;20046;-49
2022/10/01 13:34:53;;;;;;;10.38;5.63;;;;;;;;;;5011698;28;20058;-48
2022/10/01 13:37:31;;;;;;;10.43;5.88;;;;;;;;;;5010124;28;20529;-49
2022/10/01 13:39:58;;;;;;;9.75;5.13;;;;;;;;;;5011842;28;20050;-49
2022/10/01 13:42:26;;;;;;;8.77;5.40;;;;;;;;;;4998535;28;20074;-49
2022/10/01 13:44:55;;;;;;;8.55;5.28;;;;;;;;;;4998238;28;20548;-49
2022/10/01 13:47:21;;;;;;;8.95;5.40;;;;;;;;;;4998411;28;20043;-52
2022/10/01 13:49:54;;;;;;;10.07;6.25;;;;;;;;;;4998063;28;20607;-49
2022/10/01 13:52:21;;;;;;;12.10;5.90;;;;;;;;;;5012148;28;20046;-51
2022/10/01 13:54:49;;;;;;;8.07;4.95;;;;;;;;;;5006868;28;20050;-49
2022/10/01 13:57:25;;;;;;;9.27;5.60;;;;;;;;;;5000052;28;20435;-49
2022/10/01 13:59:57;;;;;;;9.80;5.15;;;;;;;;;;5007382;28;20060;-48
2022/10/01 14:02:28;;;;;;;9.95;5.75;;;;;;;;;;5014761;28;20056;-48
2022/10/01 14:04:56;;;;;;;8.80;5.57;;;;;;;;;;5015312;28;20089;-48
2022/10/01 14:07:25;;;;;;;11.93;6.20;;;;;;;;;;5015396;28;20057;-47
2022/10/01 14:09:52;;;;;;;7.25;5.10;;;;;;;;;;5009877;28;20046;-49
2022/10/01 14:17:59;;;;;;;12.88;6.88;;;;;;;;;;5007221;28;20061;-49
2022/10/01 14:20:30;;;;;;;19.00;6.60;;;;;;;;;;5014128;28;20381;-49
2022/10/01 14:23:04;;;;;;;9.63;6.38;;;;;;;;;;5013835;28;20060;-50
2022/10/01 14:25:38;;;;;;;9.20;5.63;;;;;;;;;;5008869;28;20053;-51
2022/10/01 14:28:28;;;;;;;13.05;5.90;;;;;;;;;;5012618;28;20057;-52
2022/10/01 14:30:58;;;;;;;13.18;6.63;;;;;;;;;;5010684;28;20049;-49
2022/10/01 14:33:38;;;;;;;13.50;6.72;;;;;;;;;;5015260;28;20057;-48
2022/10/01 14:36:10;;;;;;;15.13;6.53;;;;;;;;;;5008712;28;20057;-52
2022/10/01 14:38:36;;;;;;;12.27;6.60;;;;;;;;;;5009067;28;20058;-51
2022/10/01 14:41:02;;;;;;;12.35;6.50;;;;;;;;;;5014237;28;20108;-48
2022/10/01 14:43:29;;;;;;;13.00;6.10;;;;;;;;;;5006771;28;20053;-49
2022/10/01 14:46:00;;;;;;;14.80;7.60;;;;;;;;;;5013143;28;20050;-48